Time;durP1;ratioP1;P1;durP2;ratioP2;P2;SDS_P1;SDS_P2;PMS_P1;PMS_P2;Temp;Humidity;BMP_temperature;BMP_pressure;BME280_temperature;BME280_humidity;BME280_pressure;Samples;Min_cycle;Max_cycle;Signal;HPM_P1;HPM_P2
2021/06/04 00:00:07;;;;;;;1.60;1.05;;;;;;;20.12;44.33;101455.28;5032262;28;20129;-66
2021/06/04 00:02:34;;;;;;;3.05;1.00;;;;;;;20.11;44.57;101464.25;5032169;28;20096;-65
2021/06/04 00:05:01;;;;;;;2.13;1.10;;;;;;;20.12;44.67;101461.56;5030771;28;20037;-65
2021/06/04 00:07:28;;;;;;;1.33;1.00;;;;;;;20.11;44.71;101467.81;5030797;28;20128;-65
2021/06/04 00:09:55;;;;;;;3.17;1.17;;;;;;;20.09;44.96;101468.72;5032114;28;20120;-64
2021/06/04 00:12:22;;;;;;;3.03;1.20;;;;;;;20.12;45.03;101472.28;5031592;28;20060;-64
2021/06/04 00:14:49;;;;;;;2.30;1.25;;;;;;;20.12;45.02;101471.38;5031236;28;20047;-66
2021/06/04 00:17:22;;;;;;;1.55;1.10;;;;;;;20.11;45.30;101469.59;5030849;28;20041;-64
2021/06/04 00:19:50;;;;;;;3.00;1.20;;;;;;;20.01;45.65;101473.31;5030869;28;20029;-65
2021/06/04 00:22:22;;;;;;;2.92;1.30;;;;;;;20.04;45.82;101476.84;5031000;28;20314;-65
2021/06/04 00:24:51;;;;;;;1.70;0.98;;;;;;;20.11;45.74;101472.28;5031732;28;20048;-65
2021/06/04 00:27:19;;;;;;;3.45;1.05;;;;;;;20.07;45.85;101465.19;5031515;28;20133;-65
2021/06/04 00:29:46;;;;;;;4.18;1.30;;;;;;;20.06;45.78;101472.34;5031504;28;20034;-65
2021/06/04 00:32:16;;;;;;;2.75;1.42;;;;;;;19.99;46.04;101475.13;5030599;28;20041;-65
2021/06/04 00:34:45;;;;;;;2.50;1.50;;;;;;;19.97;46.20;101476.91;5030799;28;20501;-65
2021/06/04 00:37:13;;;;;;;2.08;1.20;;;;;;;19.94;46.26;101479.66;5031409;28;20033;-64
2021/06/04 00:39:41;;;;;;;2.40;1.13;;;;;;;19.94;46.66;101472.50;5031115;28;20132;-64
2021/06/04 00:42:22;;;;;;;2.67;1.50;;;;;;;19.99;46.52;101477.78;5031621;28;20050;-65
2021/06/04 00:44:51;;;;;;;1.65;1.33;;;;;;;20.00;46.88;101477.78;5030488;28;20048;-64
2021/06/04 00:47:18;;;;;;;1.77;1.17;;;;;;;19.95;46.98;101481.44;5030265;28;20044;-64
2021/06/04 00:49:49;;;;;;;3.33;1.45;;;;;;;19.92;47.23;101476.09;5030834;28;20046;-65
2021/06/04 00:52:18;;;;;;;2.63;1.50;;;;;;;19.88;47.51;101477.94;5031182;28;20115;-65
2021/06/04 00:54:46;;;;;;;1.85;1.35;;;;;;;19.82;47.78;101480.69;5030872;28;20030;-65
2021/06/04 00:57:13;;;;;;;2.95;1.40;;;;;;;19.79;48.01;101481.59;5031229;28;20050;-64
2021/06/04 00:59:42;;;;;;;2.33;1.50;;;;;;;19.74;48.17;101479.88;5030915;28;20038;-64
2021/06/04 01:02:11;;;;;;;3.30;1.23;;;;;;;19.80;48.54;101479.81;5029875;28;20452;-64
2021/06/04 01:04:39;;;;;;;2.10;1.30;;;;;;;19.79;48.70;101486.94;5031048;28;20549;-64
2021/06/04 01:07:17;;;;;;;2.53;1.55;;;;;;;19.77;49.18;101487.84;5030878;28;20379;-65
2021/06/04 01:10:03;;;;;;;3.83;1.85;;;;;;;19.76;49.29;101488.75;5030252;28;20044;-65
2021/06/04 01:12:54;;;;;;;3.00;1.63;;;;;;;19.71;49.85;101480.78;5030791;28;20124;-64
2021/06/04 01:15:29;;;;;;;2.60;1.42;;;;;;;19.71;50.26;101493.28;5029606;28;20030;-65
2021/06/04 01:18:02;;;;;;;3.05;1.80;;;;;;;19.69;50.45;101487.94;5029661;28;20061;-65
2021/06/04 01:20:33;;;;;;;2.72;1.40;;;;;;;19.67;50.75;101494.22;5026615;28;20493;-65
2021/06/04 01:23:24;;;;;;;3.67;1.55;;;;;;;19.68;51.17;101496.91;5030392;28;20045;-65
2021/06/04 01:25:56;;;;;;;3.25;1.70;;;;;;;19.70;51.78;101491.50;5010867;28;20061;-64
2021/06/04 01:28:28;;;;;;;3.55;1.67;;;;;;;19.72;51.94;101497.75;5022681;28;20099;-65
2021/06/04 01:31:04;;;;;;;4.10;1.75;;;;;;;19.69;52.05;101495.13;5030222;28;20063;-65
2021/06/04 01:33:39;;;;;;;2.50;1.60;;;;;;;19.66;52.29;101490.66;5029047;28;20045;-65
2021/06/04 01:36:07;;;;;;;3.70;2.10;;;;;;;19.64;52.50;101492.47;5026001;28;20041;-64
2021/06/04 01:38:40;;;;;;;2.70;1.70;;;;;;;19.65;52.77;101486.19;5029882;28;20128;-65
2021/06/04 01:41:12;;;;;;;6.28;2.08;;;;;;;19.64;53.20;101484.41;5030342;28;20045;-65
2021/06/04 01:43:43;;;;;;;2.58;1.67;;;;;;;19.65;53.09;101490.66;5029962;28;20129;-65
2021/06/04 01:46:15;;;;;;;6.05;2.03;;;;;;;19.69;52.89;101493.28;5029719;28;20037;-65
2021/06/04 01:48:45;;;;;;;3.63;1.80;;;;;;;19.69;52.91;101489.75;5029427;28;20068;-65
2021/06/04 01:51:18;;;;;;;4.47;1.83;;;;;;;19.72;53.41;101493.28;5029687;28;20065;-64
2021/06/04 01:53:50;;;;;;;4.05;1.85;;;;;;;19.75;53.29;101489.69;5029754;28;20040;-65
2021/06/04 01:56:22;;;;;;;2.60;1.85;;;;;;;19.74;53.37;101491.47;5029731;28;20643;-65
2021/06/04 01:58:54;;;;;;;2.53;1.65;;;;;;;19.70;53.24;101484.34;5029730;28;20046;-65
2021/06/04 02:01:23;;;;;;;3.05;1.45;;;;;;;19.70;53.50;101494.19;5029989;28;20040;-64
2021/06/04 02:03:51;;;;;;;2.88;1.80;;;;;;;19.71;53.43;101498.63;5028987;28;20402;-65
2021/06/04 02:06:18;;;;;;;6.35;1.80;;;;;;;19.69;54.23;101495.13;5029877;28;20440;-65
2021/06/04 02:08:49;;;;;;;3.65;2.03;;;;;;;19.70;54.13;101504.91;5029505;28;20043;-64
2021/06/04 02:11:20;;;;;;;3.20;1.63;;;;;;;19.65;54.17;101509.41;5029475;28;20041;-65
2021/06/04 02:13:49;;;;;;;5.40;2.17;;;;;;;19.62;54.50;101510.34;5029824;28;20063;-65
2021/06/04 02:16:54;;;;;;;4.43;2.22;;;;;;;19.66;55.30;101508.53;5029508;28;20033;-64
2021/06/04 02:19:32;;;;;;;6.67;2.40;;;;;;;19.71;55.49;101512.94;4993664;28;20064;-65
2021/06/04 02:22:05;;;;;;;4.68;2.17;;;;;;;19.68;55.62;101512.97;5029290;28;20505;-65
2021/06/04 02:24:39;;;;;;;3.20;2.17;;;;;;;19.64;56.09;101513.88;5029538;28;20052;-65
2021/06/04 02:27:13;;;;;;;3.85;1.98;;;;;;;19.62;56.66;101513.03;5029589;28;20087;-64
2021/06/04 02:29:46;;;;;;;4.50;2.28;;;;;;;19.56;57.40;101509.53;5027630;28;20048;-64
2021/06/04 02:32:19;;;;;;;4.40;2.22;;;;;;;19.54;57.79;101516.69;5029031;28;20037;-65
2021/06/04 02:34:51;;;;;;;7.93;2.47;;;;;;;19.51;58.43;101512.22;5029029;28;20042;-64
2021/06/04 02:37:22;;;;;;;4.90;2.58;;;;;;;19.53;58.77;101526.50;5029478;28;20033;-65
2021/06/04 02:39:53;;;;;;;5.40;2.60;;;;;;;19.55;59.41;101515.78;5029276;28;20040;-65
2021/06/04 02:42:26;;;;;;;5.97;2.13;;;;;;;19.59;59.48;101518.41;5028925;28;20533;-64
2021/06/04 02:44:55;;;;;;;6.28;2.67;;;;;;;19.58;59.43;101521.09;5029061;28;20128;-64
2021/06/04 02:47:26;;;;;;;3.92;2.40;;;;;;;19.58;59.58;101516.63;5028339;28;20038;-65
2021/06/04 02:49:55;;;;;;;5.35;2.45;;;;;;;19.54;59.12;101517.56;5029145;28;20042;-67
2021/06/04 02:52:32;;;;;;;3.85;2.50;;;;;;;19.52;59.73;101522.03;5029254;28;20550;-65
2021/06/04 02:55:02;;;;;;;3.65;2.53;;;;;;;19.47;59.84;101519.41;5028678;28;20455;-65
2021/06/04 02:57:33;;;;;;;5.68;2.60;;;;;;;19.44;60.10;101523.84;5028705;28;20040;-65
2021/06/04 03:00:00;;;;;;;3.53;2.40;;;;;;;19.46;59.78;101524.78;5028495;28;20136;-65
2021/06/04 03:02:30;;;;;;;5.03;2.13;;;;;;;19.47;60.28;101511.38;5028882;28;20047;-65
2021/06/04 03:05:00;;;;;;;5.18;2.58;;;;;;;19.45;60.46;101525.63;5028493;28;20041;-65
2021/06/04 03:07:30;;;;;;;5.07;2.90;;;;;;;19.48;60.73;101526.56;5028904;28;20137;-65
2021/06/04 03:09:58;;;;;;;4.68;2.47;;;;;;;19.52;61.18;101527.41;5028449;28;20125;-65
2021/06/04 03:12:30;;;;;;;4.10;2.30;;;;;;;19.59;61.31;101536.28;5028925;28;20064;-65
2021/06/04 03:15:00;;;;;;;3.88;2.42;;;;;;;19.66;61.64;101529.97;5028857;28;20474;-64
2021/06/04 03:17:32;;;;;;;5.75;2.65;;;;;;;19.74;61.78;101529.00;5028372;28;20037;-64
2021/06/04 03:20:00;;;;;;;4.95;2.42;;;;;;;19.87;61.67;101530.66;5028634;28;21527;-64
2021/06/04 03:22:31;;;;;;;3.20;2.25;;;;;;;20.03;62.24;101535.81;5028396;28;20045;-65
2021/06/04 03:25:00;;;;;;;5.20;2.38;;;;;;;20.17;62.21;101533.88;5027105;28;20046;-65
2021/06/04 03:27:28;;;;;;;4.15;2.00;;;;;;;20.27;62.59;101543.59;5027606;28;20045;-65
2021/06/04 03:29:55;;;;;;;5.28;2.20;;;;;;;20.33;62.53;101540.88;5027203;28;20095;-65
2021/06/04 03:32:23;;;;;;;5.22;2.05;;;;;;;20.31;62.62;101537.28;5028198;28;20124;-65
2021/06/04 03:34:50;;;;;;;4.82;2.58;;;;;;;20.27;62.84;101546.28;5028469;28;20037;-64
2021/06/04 03:37:21;;;;;;;4.93;2.92;;;;;;;20.22;63.25;101548.13;5028712;28;20091;-64
2021/06/04 03:39:48;;;;;;;5.53;3.20;;;;;;;20.22;63.43;101548.13;5028680;28;20398;-64
2021/06/04 03:42:18;;;;;;;4.05;2.85;;;;;;;20.26;63.54;101553.44;5027915;28;20067;-65
2021/06/04 03:44:48;;;;;;;6.32;2.38;;;;;;;20.31;63.82;101539.97;5028721;28;20041;-65
2021/06/04 03:47:16;;;;;;;4.70;2.70;;;;;;;20.32;64.08;101538.19;5028459;28;20038;-65
2021/06/04 03:49:45;;;;;;;5.07;2.60;;;;;;;20.39;64.19;101545.28;5027803;28;20073;-65
2021/06/04 03:52:14;;;;;;;5.50;2.85;;;;;;;20.46;63.82;101541.63;5009198;28;20065;-64
2021/06/04 03:54:45;;;;;;;4.80;2.92;;;;;;;20.50;64.05;101546.91;5017160;28;20040;-64
2021/06/04 03:57:16;;;;;;;4.97;2.75;;;;;;;20.58;64.33;101552.19;5029136;28;20033;-64
2021/06/04 03:59:44;;;;;;;6.55;2.67;;;;;;;20.62;64.31;101551.22;5032235;28;20038;-65
2021/06/04 04:02:14;;;;;;;3.67;2.38;;;;;;;20.66;64.61;101555.66;5031799;28;20040;-65
2021/06/04 04:04:41;;;;;;;4.97;3.00;;;;;;;20.62;64.69;101548.53;5031902;28;20572;-65
2021/06/04 04:07:11;;;;;;;7.07;2.70;;;;;;;20.67;65.32;101550.28;5032065;28;20086;-65
2021/06/04 04:09:39;;;;;;;5.53;2.90;;;;;;;20.75;65.26;101554.63;5031533;28;20063;-66
2021/06/04 04:12:08;;;;;;;6.20;2.70;;;;;;;20.84;65.57;101560.78;5031761;28;20448;-64
2021/06/04 04:14:35;;;;;;;4.18;2.60;;;;;;;20.90;65.57;101563.38;5031770;28;20133;-65
2021/06/04 04:17:02;;;;;;;4.63;2.15;;;;;;;21.20;65.26;101555.84;5031057;28;20041;-65
2021/06/04 04:19:29;;;;;;;4.70;2.45;;;;;;;21.53;65.25;101557.09;5031954;28;20038;-65
2021/06/04 04:21:56;;;;;;;5.05;2.72;;;;;;;21.74;64.45;101559.38;5031115;28;20121;-64
2021/06/04 04:24:29;;;;;;;6.45;2.60;;;;;;;22.06;63.98;101561.50;5031245;28;20045;-65
2021/06/04 04:26:57;;;;;;;4.88;2.20;;;;;;;22.15;64.03;101569.44;5031630;28;20041;-65
2021/06/04 04:29:25;;;;;;;3.97;2.20;;;;;;;22.21;63.75;101566.63;5025728;28;20048;-66
2021/06/04 04:31:55;;;;;;;4.10;2.35;;;;;;;22.40;63.87;101569.81;5030226;28;20033;-65
2021/06/04 04:34:22;;;;;;;3.90;2.53;;;;;;;22.61;63.04;101564.88;5031359;28;20063;-65
2021/06/04 04:36:52;;;;;;;4.78;2.45;;;;;;;23.02;63.05;101574.78;5031199;28;20512;-64
2021/06/04 04:39:22;;;;;;;4.28;2.20;;;;;;;23.21;61.92;101571.66;5030972;28;20297;-64
2021/06/04 04:41:52;;;;;;;2.83;1.73;;;;;;;23.21;61.56;101574.38;5031349;28;20073;-65
2021/06/04 04:44:22;;;;;;;3.78;2.00;;;;;;;22.92;61.33;101575.03;5031370;28;20048;-66
2021/06/04 04:46:49;;;;;;;4.88;2.17;;;;;;;22.90;60.62;101577.78;5031168;28;20038;-66
2021/06/04 04:49:17;;;;;;;4.40;2.08;;;;;;;23.05;60.38;101581.91;5030586;28;20037;-65
2021/06/04 04:51:44;;;;;;;2.85;1.73;;;;;;;23.38;60.28;101581.13;5030791;28;20038;-65
2021/06/04 04:54:13;;;;;;;3.85;1.98;;;;;;;23.42;60.07;101590.03;5028971;28;20037;-65
2021/06/04 04:56:41;;;;;;;4.55;2.28;;;;;;;23.36;59.73;101587.50;5018914;28;20050;-66
2021/06/04 04:59:10;;;;;;;5.68;1.80;;;;;;;23.33;60.04;101587.53;5005868;28;20113;-64
2021/06/04 05:01:38;;;;;;;3.05;1.70;;;;;;;23.55;59.90;101583.44;5031029;28;20099;-65
2021/06/04 05:04:06;;;;;;;2.95;1.70;;;;;;;24.38;57.82;101582.16;5021858;28;20117;-65
2021/06/04 05:06:33;;;;;;;2.90;1.80;;;;;;;25.09;56.00;101580.03;5017105;28;20052;-65
2021/06/04 05:09:00;;;;;;;5.82;1.90;;;;;;;25.16;55.41;101587.03;5002031;28;20530;-65
2021/06/04 05:11:27;;;;;;;4.63;1.83;;;;;;;24.66;56.19;101595.75;4991590;28;20065;-66
2021/06/04 05:13:55;;;;;;;3.05;1.83;;;;;;;24.56;55.64;101598.72;4991247;28;20049;-66
2021/06/04 05:16:23;;;;;;;3.58;1.70;;;;;;;23.97;56.70;101594.03;5012266;28;20042;-65
2021/06/04 05:18:50;;;;;;;4.00;2.13;;;;;;;23.79;57.39;101596.31;5029821;28;20120;-66
2021/06/04 05:21:19;;;;;;;4.55;1.70;;;;;;;24.88;55.23;101600.47;5029087;28;20161;-66
2021/06/04 05:23:46;;;;;;;4.07;1.50;;;;;;;25.25;54.65;101604.78;5030499;28;20033;-66
2021/06/04 05:26:13;;;;;;;3.00;1.58;;;;;;;25.83;53.13;101605.59;5030499;28;20068;-65
2021/06/04 05:28:42;;;;;;;5.45;1.85;;;;;;;26.35;51.74;101602.88;5017351;28;20494;-65
2021/06/04 05:31:11;;;;;;;4.65;1.88;;;;;;;26.21;51.80;101615.97;4994842;28;20113;-65
2021/06/04 05:33:44;;;;;;;6.07;1.50;;;;;;;26.29;51.08;101607.63;4994896;28;20747;-66
2021/06/04 05:36:14;;;;;;;3.42;1.50;;;;;;;25.53;52.14;101615.59;5004128;28;20046;-66
2021/06/04 05:38:42;;;;;;;4.35;1.50;;;;;;;24.98;53.59;101626.31;5028854;28;20072;-66
2021/06/04 05:41:09;;;;;;;6.20;1.85;;;;;;;24.90;53.96;101619.38;5008101;28;20034;-66
2021/06/04 05:43:39;;;;;;;4.63;1.60;;;;;;;25.39;52.60;101635.88;5008674;28;20042;-66
2021/06/04 05:46:08;;;;;;;3.72;2.00;;;;;;;26.50;50.15;101625.81;5026697;28;20516;-65
2021/06/04 05:48:36;;;;;;;3.10;1.40;;;;;;;27.12;48.47;101630.69;4993672;28;20037;-65
2021/06/04 05:51:08;;;;;;;4.35;1.42;;;;;;;27.16;47.88;101627.81;4994985;28;20041;-65
2021/06/04 05:53:37;;;;;;;3.25;1.45;;;;;;;27.32;47.85;101620.81;5009067;28;20045;-65
2021/06/04 05:56:07;;;;;;;2.83;1.27;;;;;;;27.02;48.34;101627.47;5016976;28;20080;-65
2021/06/04 05:58:34;;;;;;;3.70;1.65;;;;;;;26.98;48.67;101631.22;5013454;28;20417;-65
2021/06/04 06:01:04;;;;;;;5.78;2.45;;;;;;;27.76;46.52;101619.00;5001571;28;20053;-65
2021/06/04 06:03:33;;;;;;;4.03;1.40;;;;;;;28.10;45.75;101620.28;5016236;28;20462;-65
2021/06/04 06:06:01;;;;;;;1.55;1.45;;;;;;;28.44;45.49;101603.41;5021948;28;20048;-65
2021/06/04 06:08:29;;;;;;;5.22;1.70;;;;;;;28.30;45.24;101622.16;5014008;28;20113;-66
2021/06/04 06:10:56;;;;;;;3.08;1.27;;;;;;;28.36;45.18;101611.91;5029458;28;20042;-65
2021/06/04 06:13:25;;;;;;;3.80;1.40;;;;;;;28.52;44.41;101604.84;5024025;28;20149;-65
2021/06/04 06:15:53;;;;;;;3.95;1.38;;;;;;;28.84;44.04;101603.38;5027084;28;20030;-65
2021/06/04 06:18:21;;;;;;;5.43;1.42;;;;;;;28.97;44.08;101600.97;5013972;28;20099;-66
2021/06/04 06:20:48;;;;;;;4.68;1.30;;;;;;;29.05;43.85;101614.22;5008432;28;20042;-65
2021/06/04 06:23:17;;;;;;;2.47;1.45;;;;;;;29.39;43.15;101618.94;5008993;28;20520;-65
2021/06/04 06:25:48;;;;;;;4.28;1.20;;;;;;;29.57;42.21;101609.84;5006970;28;20118;-65
2021/06/04 06:28:18;;;;;;;4.80;1.10;;;;;;;29.64;41.95;101614.94;5012331;28;20052;-65
2021/06/04 06:30:46;;;;;;;2.67;1.10;;;;;;;29.82;41.67;101612.22;5021382;28;20112;-65
2021/06/04 06:33:14;;;;;;;2.08;1.00;;;;;;;29.86;41.19;101612.00;5008893;28;20049;-65
2021/06/04 06:35:44;;;;;;;4.88;1.30;;;;;;;29.84;40.58;101613.91;5011637;28;20038;-65
2021/06/04 06:38:11;;;;;;;1.75;1.20;;;;;;;29.73;39.43;101611.72;5025029;28;20128;-65
2021/06/04 06:40:40;;;;;;;3.53;1.35;;;;;;;29.74;39.04;101612.59;5023553;28;20125;-65
2021/06/04 06:43:09;;;;;;;2.03;1.27;;;;;;;30.05;38.68;101611.97;5019382;28;20046;-65
2021/06/04 06:45:36;;;;;;;3.80;1.02;;;;;;;30.12;38.05;101617.97;5024778;28;20042;-65
2021/06/04 06:48:04;;;;;;;5.15;1.20;;;;;;;29.93;38.22;101618.06;5022381;28;20386;-65
2021/06/04 06:50:34;;;;;;;3.30;1.10;;;;;;;30.17;37.90;101632.22;5017868;28;20045;-66
2021/06/04 06:53:03;;;;;;;4.80;1.27;;;;;;;30.19;37.25;101633.06;5013325;28;20040;-65
2021/06/04 06:55:30;;;;;;;2.25;0.90;;;;;;;30.06;37.26;101638.25;5009682;28;20057;-66
2021/06/04 06:57:58;;;;;;;4.30;1.25;;;;;;;30.01;37.12;101634.84;5011259;28;20070;-65
2021/06/04 07:00:30;;;;;;;2.97;1.25;;;;;;;29.94;36.89;101642.47;5021935;28;20494;-65
2021/06/04 07:02:58;;;;;;;2.13;1.48;;;;;;;29.74;36.49;101639.84;5012593;28;20089;-65
2021/06/04 07:05:26;;;;;;;3.20;1.30;;;;;;;29.71;36.83;101632.72;5016627;28;20125;-65
2021/06/04 07:07:53;;;;;;;4.57;1.10;;;;;;;29.78;36.48;101630.56;5020700;28;20042;-66
2021/06/04 07:10:24;;;;;;;5.38;1.30;;;;;;;30.10;36.41;101632.56;5015217;28;20041;-65
2021/06/04 07:12:51;;;;;;;5.13;1.60;;;;;;;30.16;36.21;101627.75;5026776;28;20558;-66
2021/06/04 07:15:20;;;;;;;3.47;1.08;;;;;;;30.29;35.94;101628.88;5031136;28;20099;-66
2021/06/04 07:17:49;;;;;;;4.70;1.35;;;;;;;30.33;35.40;101619.56;5022263;28;20042;-66
2021/06/04 07:20:18;;;;;;;4.40;1.40;;;;;;;30.28;35.08;101627.97;5022429;28;21877;-66
2021/06/04 07:22:46;;;;;;;6.10;1.30;;;;;;;30.36;35.33;101620.28;5021984;28;20041;-66
2021/06/04 07:25:16;;;;;;;3.13;1.25;;;;;;;30.46;34.96;101621.53;5019883;28;20048;-66
2021/06/04 07:27:43;;;;;;;4.07;1.23;;;;;;;30.48;34.53;101629.66;5013857;28;20048;-65
2021/06/04 07:30:12;;;;;;;2.85;1.23;;;;;;;30.48;34.34;101626.91;5015598;28;20129;-66
2021/06/04 07:32:40;;;;;;;3.55;1.55;;;;;;;30.49;34.63;101623.28;5015724;28;20053;-66
2021/06/04 07:35:12;;;;;;;2.88;1.10;;;;;;;30.62;34.49;101620.75;5017427;28;20183;-65
2021/06/04 07:37:40;;;;;;;3.15;1.20;;;;;;;30.58;34.65;101627.34;5031228;28;20049;-65
2021/06/04 07:40:11;;;;;;;3.13;1.20;;;;;;;30.61;34.42;101624.44;5030816;28;20042;-65
2021/06/04 07:42:38;;;;;;;3.03;1.10;;;;;;;30.63;34.26;101617.97;5032580;28;20042;-65
2021/06/04 07:45:07;;;;;;;5.80;1.30;;;;;;;30.70;34.36;101624.84;5032754;28;20064;-66
2021/06/04 07:47:34;;;;;;;1.92;0.88;;;;;;;30.69;34.63;101624.91;5032002;28;20083;-65
2021/06/04 07:50:01;;;;;;;3.35;1.10;;;;;;;30.69;34.89;101620.34;5031904;28;20036;-66
2021/06/04 07:52:30;;;;;;;4.93;1.00;;;;;;;30.65;35.08;101624.22;5028809;28;20037;-66
2021/06/04 07:54:59;;;;;;;1.70;1.00;;;;;;;30.66;35.64;101620.50;5030387;28;20034;-66
2021/06/04 07:57:27;;;;;;;6.53;1.10;;;;;;;30.80;35.48;101627.94;5032316;28;20033;-66
2021/06/04 07:59:55;;;;;;;1.48;1.10;;;;;;;30.87;35.38;101632.97;5013975;28;20032;-66
2021/06/04 08:02:22;;;;;;;2.38;1.02;;;;;;;30.90;35.09;101640.13;5030831;28;20125;-66
2021/06/04 08:04:51;;;;;;;3.08;1.20;;;;;;;30.93;34.14;101639.94;5009875;28;20516;-66
2021/06/04 08:07:18;;;;;;;2.20;1.20;;;;;;;31.04;33.77;101622.97;5022953;28;20091;-65
2021/06/04 08:09:47;;;;;;;5.30;1.40;;;;;;;30.92;34.10;101637.31;5030235;28;20044;-66
2021/06/04 08:12:16;;;;;;;2.80;1.30;;;;;;;30.84;34.69;101640.47;5033748;28;20468;-66
2021/06/04 08:14:43;;;;;;;3.35;1.20;;;;;;;30.88;34.41;101625.66;5032781;28;20069;-65
2021/06/04 08:17:10;;;;;;;3.38;1.17;;;;;;;30.79;34.11;101631.63;5033364;28;20041;-65
2021/06/04 08:19:38;;;;;;;3.50;1.17;;;;;;;30.87;33.72;101630.25;5032662;28;20437;-65
2021/06/04 08:22:08;;;;;;;3.08;1.45;;;;;;;30.84;33.09;101630.44;5031789;28;20052;-66
2021/06/04 08:24:37;;;;;;;3.25;1.45;;;;;;;30.88;33.76;101617.47;5031643;28;20061;-66
2021/06/04 08:27:08;;;;;;;4.82;1.45;;;;;;;31.00;33.96;101627.72;5031075;28;20561;-66
2021/06/04 08:29:35;;;;;;;4.25;1.58;;;;;;;31.14;33.91;101626.97;5031922;28;20097;-65
2021/06/04 08:32:05;;;;;;;2.35;1.30;;;;;;;31.30;33.86;101633.34;5030108;28;20124;-65
2021/06/04 08:34:32;;;;;;;4.75;1.10;;;;;;;31.34;33.82;101626.72;5032217;28;20041;-65
2021/06/04 08:37:00;;;;;;;5.70;1.30;;;;;;;31.38;33.76;101638.34;5032803;28;20063;-65
2021/06/04 08:39:30;;;;;;;2.40;1.30;;;;;;;31.45;33.74;101643.34;5030466;28;20061;-65
2021/06/04 08:42:14;;;;;;;2.40;1.08;;;;;;;31.50;33.34;101635.81;5031027;28;20036;-65
2021/06/04 08:44:50;;;;;;;5.32;1.55;;;;;;;31.47;33.80;101646.88;5018590;28;20041;-65
2021/06/04 08:47:20;;;;;;;2.72;1.10;;;;;;;31.34;33.87;101647.69;5060778;28;20053;-65
2021/06/04 08:50:05;;;;;;;3.70;1.25;;;;;;;31.37;34.00;101663.91;5029717;28;20045;-66
2021/06/04 08:52:39;;;;;;;5.03;1.38;;;;;;;31.37;34.04;101661.16;5025239;28;20042;-65
2021/06/04 08:55:22;;;;;;;3.10;1.27;;;;;;;31.43;33.76;101655.34;5024423;28;20067;-65
2021/06/04 08:57:54;;;;;;;4.43;1.50;;;;;;;31.41;33.07;101649.97;5027697;28;20068;-65
2021/06/04 09:00:25;;;;;;;4.45;1.00;;;;;;;31.37;33.42;101648.41;5013757;28;20046;-65
2021/06/04 09:02:58;;;;;;;3.42;1.27;;;;;;;31.27;34.05;101658.94;5010866;28;20042;-65
2021/06/04 09:05:32;;;;;;;4.97;1.40;;;;;;;31.30;34.06;101659.75;5006405;28;20117;-65
2021/06/04 09:07:59;;;;;;;1.80;1.20;;;;;;;31.42;34.01;101654.47;5012675;28;20049;-65
2021/06/04 09:10:35;;;;;;;3.47;1.40;;;;;;;31.46;33.59;101642.41;5009694;28;20044;-65
2021/06/04 09:13:11;;;;;;;4.70;1.30;;;;;;;31.46;33.06;101645.13;5011912;28;20071;-65
2021/06/04 09:15:48;;;;;;;4.43;1.42;;;;;;;31.46;33.00;101652.44;5007790;28;20050;-65
2021/06/04 09:18:19;;;;;;;3.00;1.73;;;;;;;31.66;33.67;101658.53;5024667;28;20129;-65
2021/06/04 09:20:52;;;;;;;2.70;1.50;;;;;;;31.96;33.45;101657.72;5027816;28;20037;-65
2021/06/04 09:23:25;;;;;;;5.35;1.63;;;;;;;31.97;33.44;101665.81;5023450;28;20038;-65
2021/06/04 09:25:52;;;;;;;2.97;1.42;;;;;;;31.99;33.38;101665.72;5008107;28;20034;-65
2021/06/04 09:28:28;;;;;;;4.93;1.50;;;;;;;32.14;33.22;101662.13;5013762;28;20038;-65
2021/06/04 09:30:57;;;;;;;3.53;1.50;;;;;;;32.01;32.32;101674.72;5018082;28;20042;-65
2021/06/04 09:33:29;;;;;;;4.03;1.60;;;;;;;31.87;32.18;101669.19;5005441;28;20046;-65
2021/06/04 09:36:10;;;;;;;2.95;1.30;;;;;;;31.90;32.97;101679.94;5012404;28;20038;-65
2021/06/04 09:38:43;;;;;;;3.45;1.38;;;;;;;31.98;33.00;101675.78;5002766;28;20042;-65
2021/06/04 09:41:39;;;;;;;2.80;1.38;;;;;;;31.97;32.89;101673.13;5030578;28;20053;-65
2021/06/04 09:44:15;;;;;;;4.95;1.60;;;;;;;31.74;33.00;101677.22;5027815;28;20117;-65
2021/06/04 09:46:52;;;;;;;2.80;1.75;;;;;;;31.53;32.95;101673.84;5007015;28;20044;-65
2021/06/04 09:49:37;;;;;;;3.42;1.50;;;;;;;31.57;32.78;101650.84;5025311;28;20046;-66
2021/06/04 09:52:24;;;;;;;6.05;1.60;;;;;;;31.53;33.64;101667.50;5020518;28;20042;-65
2021/06/04 09:55:21;;;;;;;4.53;1.75;;;;;;;31.44;34.56;101676.22;5006432;28;20130;-65
2021/06/04 09:58:09;;;;;;;2.63;1.60;;;;;;;31.18;34.35;101673.09;5027721;28;20099;-65
2021/06/04 10:00:41;;;;;;;4.03;1.88;;;;;;;31.07;34.91;101674.66;5030110;28;20520;-65
2021/06/04 10:03:25;;;;;;;5.20;1.75;;;;;;;30.75;35.72;101673.66;5029164;28;20124;-65
2021/06/04 10:06:06;;;;;;;2.15;1.50;;;;;;;30.68;35.57;101667.66;5026222;28;20042;-65
2021/06/04 10:08:43;;;;;;;2.83;1.27;;;;;;;30.73;35.77;101667.41;5022789;28;20042;-65
2021/06/04 10:11:14;;;;;;;4.80;2.35;;;;;;;30.54;35.89;101670.25;5020480;28;20103;-65
2021/06/04 10:13:48;;;;;;;3.80;1.60;;;;;;;30.41;36.43;101663.66;5027807;28;20410;-65
2021/06/04 10:19:31;;;;;;;7.55;1.70;;;;;;;30.39;36.67;101671.03;4981886;28;20049;-64
2021/06/04 10:22:23;;;;;;;3.78;1.40;;;;;;;30.38;36.54;101672.00;5005444;28;20120;-65
2021/06/04 10:24:52;;;;;;;4.78;1.70;;;;;;;30.24;37.44;101659.09;5014295;28;20037;-65
2021/06/04 10:27:37;;;;;;;2.60;1.55;;;;;;;30.23;37.40;101670.06;5029186;28;20120;-65
2021/06/04 10:30:10;;;;;;;4.88;1.80;;;;;;;30.17;37.79;101668.53;5029553;28;20060;-65
2021/06/04 10:32:47;;;;;;;4.07;1.55;;;;;;;30.24;37.84;101658.22;5030646;28;20094;-65
2021/06/04 10:35:22;;;;;;;5.28;1.80;;;;;;;30.21;38.18;101661.97;5028245;28;20120;-65
2021/06/04 10:37:54;;;;;;;4.95;2.00;;;;;;;30.05;38.06;101670.06;5030106;28;20129;-65
2021/06/04 10:40:27;;;;;;;4.07;1.98;;;;;;;30.03;38.13;101663.78;5030228;28;20026;-66
2021/06/04 10:43:08;;;;;;;6.60;1.83;;;;;;;30.02;37.87;101658.41;5029208;28;20034;-65
2021/06/04 10:45:40;;;;;;;5.07;1.85;;;;;;;29.92;38.16;101671.66;5030559;28;20168;-65
2021/06/04 10:48:37;;;;;;;4.82;1.83;;;;;;;30.04;37.79;101664.69;5030473;28;20050;-65
2021/06/04 10:51:15;;;;;;;4.55;1.67;;;;;;;30.22;37.73;101673.75;4984270;28;20053;-65
2021/06/04 10:53:49;;;;;;;3.55;1.60;;;;;;;30.38;37.75;101661.97;5028580;28;20043;-66
2021/06/04 10:56:20;;;;;;;;;;;;;;;30.32;37.82;101670.47;5029555;28;20041;-65
2021/06/04 10:58:55;;;;;;;4.28;1.75;;;;;;;30.46;37.79;101677.91;5027614;28;19936;-65
2021/06/04 11:01:29;;;;;;;4.30;1.85;;;;;;;30.58;38.11;101662.81;5028612;28;20065;-65
2021/06/04 11:04:00;;;;;;;;;;;;;;;30.59;38.08;101683.66;5017739;28;20157;-65
2021/06/04 11:06:33;;;;;;;6.20;2.15;;;;;;;30.17;38.27;101675.84;5031740;28;19921;-66
2021/06/04 11:09:14;;;;;;;4.40;2.35;;;;;;;30.18;38.25;101677.59;5033551;28;20033;-66
2021/06/04 11:11:49;;;;;;;6.88;2.30;;;;;;;30.03;39.00;101669.25;5032203;28;20080;-66
2021/06/04 11:14:43;;;;;;;5.35;1.98;;;;;;;29.77;39.51;101674.22;5031674;28;20045;-65
2021/06/04 11:17:23;;;;;;;4.05;2.05;;;;;;;29.80;39.12;101674.06;5035112;28;20042;-66
2021/06/04 11:19:58;;;;;;;8.20;2.03;;;;;;;29.99;39.34;101664.94;5026465;28;20057;-65
2021/06/04 11:22:34;;;;;;;4.05;1.83;;;;;;;30.17;39.06;101670.38;5030261;28;20072;-66
2021/06/04 11:25:05;;;;;;;9.10;2.10;;;;;;;29.92;39.27;101658.03;5029801;28;20051;-65
2021/06/04 11:27:37;;;;;;;7.10;2.80;;;;;;;29.46;39.37;101662.13;5033510;28;20037;-66
2021/06/04 11:30:09;;;;;;;8.73;2.38;;;;;;;29.46;39.80;101653.06;5033502;28;20129;-65
2021/06/04 11:32:49;;;;;;;7.47;1.90;;;;;;;29.51;39.66;101657.31;5028114;28;20448;-65
2021/06/04 11:35:22;;;;;;;5.70;2.22;;;;;;;29.58;39.16;101660.63;4995227;28;20049;-65
2021/06/04 11:37:58;;;;;;;5.68;2.17;;;;;;;29.39;40.51;101654.31;4997534;28;20520;-65
2021/06/04 11:40:32;;;;;;;6.00;2.08;;;;;;;29.49;40.06;101650.19;5013484;28;20030;-66
2021/06/04 11:43:04;;;;;;;8.00;1.95;;;;;;;29.83;39.72;101636.66;5013307;28;20038;-65
2021/06/04 11:45:33;;;;;;;7.20;2.58;;;;;;;29.94;39.28;101642.47;5012171;28;20038;-65
2021/06/04 11:48:34;;;;;;;5.15;2.28;;;;;;;30.02;39.16;101636.63;5013211;28;20038;-65